Old Saybrook, CT (06475)

11:46 PM EDT on March 30, 2015 (GMT -0400)
Beamon Creek OS | | Change Station
CLOSE
Current Station
Personal Weather Station
Location: Old Saybrook, CT
Elevation: 10 ft
Nearby Weather Stations

Elev 10 ft 41.27 °N, 72.37 °W | Updated 1 minute ago

Overcast
Overcast
41.0 °F
Feels Like 37 °F
N
5.8
Wind Variable Wind from SW

Today
High -- | Low -- °F
--% Chance of Precip.
Yesterday
High -- | Low -- °F
Precip. -- in
6:36 AM 7:12 PM
Waxing Gibbous, 84% visible
Pressure 29.82 in
Visibility 8.0 miles
Clouds Few 1400 ft
Scattered Clouds 1900 ft
Mostly Cloudy 2700 ft
Windchill 37 °F
Dew Point 30 °F
Humidity 65%
Rainfall 0.00 in
Snow Depth Not available.
UV 0 out of 12
Pollen 6.70 out of 12
Air Quality Not available.
Flu Activity Not available.
METAR KSNC 310315Z AUTO 30006G25KT 8SM -RA FEW014 SCT019 BKN027 04/00 A2982 RMK AO2 P0001

More Conditions Fewer Conditions

Pressure 29.82 in
Visibility 8.0 miles
Clouds Few 1400 ft
Scattered Clouds 1900 ft
Mostly Cloudy 2700 ft
Windchill 37 °F
Dew Point 30 °F
Humidity 65%
Rainfall 0.00 in
Snow Depth Not available.
UV 0 out of 12
Pollen 6.70 out of 12
Air Quality Not available.
Flu Activity Not available.
METAR KSNC 310315Z AUTO 30006G25KT 8SM -RA FEW014 SCT019 BKN027 04/00 A2982 RMK AO2 P0001

More Conditions Fewer Conditions

10-Day Weather Forecast

Almanac

Astronomy

Mar. 30, 2015 Rise Set
Actual Time
Civil Twilight
Nautical Twilight
Astronomical Twilight
Moon
Length of Visible Light
Length of Day
Tomorrow will be .
, % of the Moon is Illuminated

Today's Extremes

State Highs State Lows

Community

WunderPhotos

Upload Photos

1,809,713 photos uploaded!

WunderBlogs® & News

Nearby

Air Quality

  Air Quality AQ Index Pollutant
Not available.

Snow Depth

Station Depth Elevation

Earthquake Activity

City Distance Mag. Time & Date
Minimum magnitude displayed is 2.5.

Coastal Water Temperatures

Place Temperature

Stations

Nearby Weather Stations

Station Location Temp. Windchill Dew Point Humidity Wind Precip. Elev Updated Type